sensor_id;sensor_type;location;lat;lon;timestamp;P1;durP1;ratioP1;P2;durP2;ratioP2
1074;SDS011;526;51.392;12.448;2022-09-25T00:01:36;5.50;;;2.53;;
1074;SDS011;526;51.392;12.448;2022-09-25T00:04:02;4.03;;;3.23;;
1074;SDS011;526;51.392;12.448;2022-09-25T00:06:27;15.40;;;4.27;;
1074;SDS011;526;51.392;12.448;2022-09-25T00:08:54;4.37;;;4.10;;
1074;SDS011;526;51.392;12.448;2022-09-25T00:11:22;4.60;;;2.80;;
1074;SDS011;526;51.392;12.448;2022-09-25T00:13:49;2.97;;;2.80;;
1074;SDS011;526;51.392;12.448;2022-09-25T00:16:16;3.23;;;2.70;;
1074;SDS011;526;51.392;12.448;2022-09-25T00:18:46;3.50;;;3.30;;
1074;SDS011;526;51.392;12.448;2022-09-25T00:21:30;5.57;;;3.83;;
1074;SDS011;526;51.392;12.448;2022-09-25T00:23:57;4.83;;;3.00;;
1074;SDS011;526;51.392;12.448;2022-09-25T00:26:28;4.63;;;3.77;;
1074;SDS011;526;51.392;12.448;2022-09-25T00:28:55;2.90;;;2.57;;
1074;SDS011;526;51.392;12.448;2022-09-25T00:31:22;4.43;;;3.70;;
1074;SDS011;526;51.392;12.448;2022-09-25T00:33:51;3.33;;;2.90;;
1074;SDS011;526;51.392;12.448;2022-09-25T00:36:16;3.10;;;2.90;;
1074;SDS011;526;51.392;12.448;2022-09-25T00:38:42;3.40;;;3.20;;
1074;SDS011;526;51.392;12.448;2022-09-25T00:41:10;2.43;;;2.23;;
1074;SDS011;526;51.392;12.448;2022-09-25T00:43:39;4.10;;;3.10;;
1074;SDS011;526;51.392;12.448;2022-09-25T00:49:16;2.77;;;2.30;;
1074;SDS011;526;51.392;12.448;2022-09-25T00:51:47;2.20;;;2.07;;
1074;SDS011;526;51.392;12.448;2022-09-25T00:54:31;2.40;;;2.13;;
1074;SDS011;526;51.392;12.448;2022-09-25T00:57:05;2.93;;;2.73;;
1074;SDS011;526;51.392;12.448;2022-09-25T00:59:34;2.60;;;2.40;;
1074;SDS011;526;51.392;12.448;2022-09-25T01:02:02;7.00;;;2.13;;
1074;SDS011;526;51.392;12.448;2022-09-25T01:04:55;2.77;;;2.60;;
1074;SDS011;526;51.392;12.448;2022-09-25T01:07:24;5.20;;;3.97;;
1074;SDS011;526;51.392;12.448;2022-09-25T01:09:49;5.27;;;4.03;;
1074;SDS011;526;51.392;12.448;2022-09-25T01:15:19;2.53;;;2.33;;
1074;SDS011;526;51.392;12.448;2022-09-25T01:17:55;5.70;;;2.50;;
1074;SDS011;526;51.392;12.448;2022-09-25T01:22:59;1.67;;;1.63;;
1074;SDS011;526;51.392;12.448;2022-09-25T01:31:40;3.57;;;3.40;;
1074;SDS011;526;51.392;12.448;2022-09-25T01:34:43;3.43;;;2.50;;
1074;SDS011;526;51.392;12.448;2022-09-25T01:37:32;3.90;;;2.10;;
1074;SDS011;526;51.392;12.448;2022-09-25T01:43:07;1.93;;;1.73;;
1074;SDS011;526;51.392;12.448;2022-09-25T01:45:59;4.50;;;3.50;;
1074;SDS011;526;51.392;12.448;2022-09-25T01:48:28;2.67;;;2.30;;
1074;SDS011;526;51.392;12.448;2022-09-25T01:50:57;2.90;;;2.40;;
1074;SDS011;526;51.392;12.448;2022-09-25T01:53:26;2.83;;;2.53;;
1074;SDS011;526;51.392;12.448;2022-09-25T01:56:15;2.93;;;2.73;;
1074;SDS011;526;51.392;12.448;2022-09-25T01:59:06;2.50;;;1.97;;
1074;SDS011;526;51.392;12.448;2022-09-25T02:01:39;6.33;;;3.47;;
1074;SDS011;526;51.392;12.448;2022-09-25T02:04:08;2.37;;;2.00;;
1074;SDS011;526;51.392;12.448;2022-09-25T02:06:46;9.73;;;3.63;;
1074;SDS011;526;51.392;12.448;2022-09-25T02:09:15;3.53;;;2.67;;
1074;SDS011;526;51.392;12.448;2022-09-25T02:11:57;6.63;;;3.03;;
1074;SDS011;526;51.392;12.448;2022-09-25T02:14:31;2.50;;;2.13;;
1074;SDS011;526;51.392;12.448;2022-09-25T02:17:01;3.37;;;3.13;;
1074;SDS011;526;51.392;12.448;2022-09-25T02:19:32;2.43;;;2.23;;
1074;SDS011;526;51.392;12.448;2022-09-25T02:22:17;2.47;;;1.83;;
1074;SDS011;526;51.392;12.448;2022-09-25T02:27:20;2.63;;;2.43;;
1074;SDS011;526;51.392;12.448;2022-09-25T02:29:48;3.93;;;2.20;;
1074;SDS011;526;51.392;12.448;2022-09-25T02:32:15;3.40;;;3.20;;
1074;SDS011;526;51.392;12.448;2022-09-25T02:34:44;3.50;;;2.60;;
1074;SDS011;526;51.392;12.448;2022-09-25T02:37:10;4.77;;;3.73;;
1074;SDS011;526;51.392;12.448;2022-09-25T02:39:39;5.23;;;3.03;;
1074;SDS011;526;51.392;12.448;2022-09-25T02:42:13;4.80;;;3.73;;
1074;SDS011;526;51.392;12.448;2022-09-25T02:44:54;3.10;;;2.80;;
1074;SDS011;526;51.392;12.448;2022-09-25T02:50:25;3.27;;;3.10;;
1074;SDS011;526;51.392;12.448;2022-09-25T02:55:57;6.83;;;4.17;;
1074;SDS011;526;51.392;12.448;2022-09-25T02:58:34;2.47;;;2.30;;
1074;SDS011;526;51.392;12.448;2022-09-25T03:01:04;4.70;;;2.43;;
1074;SDS011;526;51.392;12.448;2022-09-25T03:03:32;8.43;;;3.97;;
1074;SDS011;526;51.392;12.448;2022-09-25T03:05:59;3.10;;;2.43;;
1074;SDS011;526;51.392;12.448;2022-09-25T03:08:29;6.20;;;2.60;;
1074;SDS011;526;51.392;12.448;2022-09-25T03:11:06;3.93;;;3.03;;
1074;SDS011;526;51.392;12.448;2022-09-25T03:13:39;2.90;;;2.50;;
1074;SDS011;526;51.392;12.448;2022-09-25T03:16:07;2.67;;;2.30;;
1074;SDS011;526;51.392;12.448;2022-09-25T03:18:40;3.37;;;2.60;;
1074;SDS011;526;51.392;12.448;2022-09-25T03:21:05;7.10;;;4.30;;
1074;SDS011;526;51.392;12.448;2022-09-25T03:23:31;3.80;;;2.40;;
1074;SDS011;526;51.392;12.448;2022-09-25T03:25:57;5.57;;;2.53;;
1074;SDS011;526;51.392;12.448;2022-09-25T03:28:23;3.93;;;3.80;;
1074;SDS011;526;51.392;12.448;2022-09-25T03:31:02;4.10;;;3.37;;
1074;SDS011;526;51.392;12.448;2022-09-25T03:33:32;4.20;;;3.20;;
1074;SDS011;526;51.392;12.448;2022-09-25T03:36:04;3.50;;;2.50;;
1074;SDS011;526;51.392;12.448;2022-09-25T03:38:36;3.93;;;2.27;;
1074;SDS011;526;51.392;12.448;2022-09-25T03:41:05;3.60;;;3.07;;
1074;SDS011;526;51.392;12.448;2022-09-25T03:43:32;6.50;;;3.67;;
1074;SDS011;526;51.392;12.448;2022-09-25T03:46:00;4.67;;;3.83;;
1074;SDS011;526;51.392;12.448;2022-09-25T03:48:29;3.60;;;2.67;;
1074;SDS011;526;51.392;12.448;2022-09-25T03:50:55;5.27;;;2.50;;
1074;SDS011;526;51.392;12.448;2022-09-25T03:53:21;6.23;;;3.03;;
1074;SDS011;526;51.392;12.448;2022-09-25T03:55:49;11.93;;;4.40;;
1074;SDS011;526;51.392;12.448;2022-09-25T03:58:15;3.67;;;2.50;;
1074;SDS011;526;51.392;12.448;2022-09-25T04:00:43;3.40;;;3.07;;
1074;SDS011;526;51.392;12.448;2022-09-25T04:03:10;4.97;;;3.53;;
1074;SDS011;526;51.392;12.448;2022-09-25T04:05:37;3.10;;;2.77;;
1074;SDS011;526;51.392;12.448;2022-09-25T04:08:06;3.30;;;2.70;;
1074;SDS011;526;51.392;12.448;2022-09-25T04:10:34;6.17;;;3.23;;
1074;SDS011;526;51.392;12.448;2022-09-25T04:13:05;4.57;;;3.37;;
1074;SDS011;526;51.392;12.448;2022-09-25T04:15:31;5.77;;;4.37;;
1074;SDS011;526;51.392;12.448;2022-09-25T04:17:59;5.93;;;4.03;;
1074;SDS011;526;51.392;12.448;2022-09-25T04:20:24;4.20;;;2.70;;
1074;SDS011;526;51.392;12.448;2022-09-25T04:22:50;2.93;;;2.63;;
1074;SDS011;526;51.392;12.448;2022-09-25T04:25:15;5.87;;;3.03;;
1074;SDS011;526;51.392;12.448;2022-09-25T04:27:43;4.77;;;3.20;;
1074;SDS011;526;51.392;12.448;2022-09-25T04:30:12;3.80;;;2.50;;
1074;SDS011;526;51.392;12.448;2022-09-25T04:32:40;5.23;;;2.50;;
1074;SDS011;526;51.392;12.448;2022-09-25T04:35:24;3.73;;;3.00;;
1074;SDS011;526;51.392;12.448;2022-09-25T04:37:51;5.70;;;4.30;;
1074;SDS011;526;51.392;12.448;2022-09-25T04:40:19;3.50;;;3.00;;
1074;SDS011;526;51.392;12.448;2022-09-25T04:42:44;2.20;;;2.00;;
1074;SDS011;526;51.392;12.448;2022-09-25T04:45:10;6.77;;;4.07;;
1074;SDS011;526;51.392;12.448;2022-09-25T04:47:35;9.10;;;4.10;;
1074;SDS011;526;51.392;12.448;2022-09-25T04:50:01;6.50;;;2.50;;
1074;SDS011;526;51.392;12.448;2022-09-25T04:52:26;4.33;;;3.10;;
1074;SDS011;526;51.392;12.448;2022-09-25T04:54:55;3.73;;;2.73;;
1074;SDS011;526;51.392;12.448;2022-09-25T04:57:20;5.00;;;3.93;;
1074;SDS011;526;51.392;12.448;2022-09-25T04:59:47;8.07;;;5.40;;
1074;SDS011;526;51.392;12.448;2022-09-25T05:02:18;5.40;;;2.83;;
1074;SDS011;526;51.392;12.448;2022-09-25T05:04:43;2.73;;;2.53;;
1074;SDS011;526;51.392;12.448;2022-09-25T05:07:09;6.27;;;3.20;;
1074;SDS011;526;51.392;12.448;2022-09-25T05:09:34;8.87;;;3.70;;
1074;SDS011;526;51.392;12.448;2022-09-25T05:12:00;2.90;;;2.63;;
1074;SDS011;526;51.392;12.448;2022-09-25T05:14:25;4.60;;;3.03;;
1074;SDS011;526;51.392;12.448;2022-09-25T05:16:51;3.57;;;3.13;;
1074;SDS011;526;51.392;12.448;2022-09-25T05:19:16;3.43;;;2.77;;
1074;SDS011;526;51.392;12.448;2022-09-25T05:21:42;9.90;;;4.40;;
1074;SDS011;526;51.392;12.448;2022-09-25T05:24:08;4.90;;;3.80;;
1074;SDS011;526;51.392;12.448;2022-09-25T05:26:34;4.03;;;3.73;;
1074;SDS011;526;51.392;12.448;2022-09-25T05:29:01;7.73;;;4.90;;
1074;SDS011;526;51.392;12.448;2022-09-25T05:31:28;4.70;;;3.13;;
1074;SDS011;526;51.392;12.448;2022-09-25T05:33:53;6.63;;;4.60;;
1074;SDS011;526;51.392;12.448;2022-09-25T05:36:19;3.93;;;3.70;;
1074;SDS011;526;51.392;12.448;2022-09-25T05:38:45;6.07;;;4.20;;
1074;SDS011;526;51.392;12.448;2022-09-25T05:41:11;5.13;;;3.63;;
1074;SDS011;526;51.392;12.448;2022-09-25T05:43:38;9.50;;;5.03;;
1074;SDS011;526;51.392;12.448;2022-09-25T05:46:05;5.80;;;3.67;;
1074;SDS011;526;51.392;12.448;2022-09-25T05:48:31;2.90;;;2.37;;
1074;SDS011;526;51.392;12.448;2022-09-25T05:50:56;4.80;;;4.00;;
1074;SDS011;526;51.392;12.448;2022-09-25T05:53:23;5.33;;;3.33;;
1074;SDS011;526;51.392;12.448;2022-09-25T05:55:52;3.33;;;3.13;;
1074;SDS011;526;51.392;12.448;2022-09-25T05:58:19;4.67;;;4.03;;
1074;SDS011;526;51.392;12.448;2022-09-25T06:00:46;3.50;;;3.33;;
1074;SDS011;526;51.392;12.448;2022-09-25T06:03:14;3.93;;;3.40;;
1074;SDS011;526;51.392;12.448;2022-09-25T06:05:40;2.70;;;2.50;;
1074;SDS011;526;51.392;12.448;2022-09-25T06:08:06;4.10;;;2.67;;
1074;SDS011;526;51.392;12.448;2022-09-25T06:10:32;3.40;;;2.90;;
1074;SDS011;526;51.392;12.448;2022-09-25T06:13:00;4.50;;;3.40;;
1074;SDS011;526;51.392;12.448;2022-09-25T06:15:29;5.70;;;3.20;;
1074;SDS011;526;51.392;12.448;2022-09-25T06:18:00;3.30;;;2.97;;
1074;SDS011;526;51.392;12.448;2022-09-25T06:20:25;3.60;;;3.40;;
1074;SDS011;526;51.392;12.448;2022-09-25T06:22:54;4.23;;;3.93;;
1074;SDS011;526;51.392;12.448;2022-09-25T06:25:21;10.30;;;5.83;;
1074;SDS011;526;51.392;12.448;2022-09-25T06:27:53;3.93;;;3.40;;
1074;SDS011;526;51.392;12.448;2022-09-25T06:30:20;5.87;;;3.57;;
1074;SDS011;526;51.392;12.448;2022-09-25T06:32:47;6.27;;;5.93;;
1074;SDS011;526;51.392;12.448;2022-09-25T06:35:14;5.63;;;4.00;;
1074;SDS011;526;51.392;12.448;2022-09-25T06:37:40;11.03;;;4.50;;
1074;SDS011;526;51.392;12.448;2022-09-25T06:40:06;4.00;;;3.77;;
1074;SDS011;526;51.392;12.448;2022-09-25T06:42:32;4.67;;;4.37;;
1074;SDS011;526;51.392;12.448;2022-09-25T06:44:59;4.70;;;3.80;;
1074;SDS011;526;51.392;12.448;2022-09-25T06:47:25;8.40;;;4.13;;
1074;SDS011;526;51.392;12.448;2022-09-25T06:49:50;11.33;;;7.60;;
1074;SDS011;526;51.392;12.448;2022-09-25T06:52:16;6.10;;;4.20;;
1074;SDS011;526;51.392;12.448;2022-09-25T06:54:42;4.57;;;3.90;;
1074;SDS011;526;51.392;12.448;2022-09-25T06:57:08;4.00;;;3.37;;
1074;SDS011;526;51.392;12.448;2022-09-25T06:59:33;5.50;;;3.50;;
1074;SDS011;526;51.392;12.448;2022-09-25T07:01:59;6.53;;;4.17;;
1074;SDS011;526;51.392;12.448;2022-09-25T07:04:45;4.43;;;2.87;;
1074;SDS011;526;51.392;12.448;2022-09-25T07:07:16;5.47;;;4.13;;
1074;SDS011;526;51.392;12.448;2022-09-25T07:09:44;9.23;;;6.83;;
1074;SDS011;526;51.392;12.448;2022-09-25T07:12:10;5.47;;;4.17;;
1074;SDS011;526;51.392;12.448;2022-09-25T07:14:36;10.13;;;4.97;;
1074;SDS011;526;51.392;12.448;2022-09-25T07:17:02;6.40;;;3.80;;
1074;SDS011;526;51.392;12.448;2022-09-25T07:19:28;11.37;;;6.67;;
1074;SDS011;526;51.392;12.448;2022-09-25T07:21:53;7.27;;;4.33;;
1074;SDS011;526;51.392;12.448;2022-09-25T07:24:19;7.73;;;4.43;;
1074;SDS011;526;51.392;12.448;2022-09-25T07:26:45;6.63;;;5.27;;
1074;SDS011;526;51.392;12.448;2022-09-25T07:29:13;5.90;;;4.50;;
1074;SDS011;526;51.392;12.448;2022-09-25T07:31:40;12.47;;;4.20;;
1074;SDS011;526;51.392;12.448;2022-09-25T07:34:07;16.53;;;5.33;;
1074;SDS011;526;51.392;12.448;2022-09-25T07:36:36;8.33;;;5.10;;
1074;SDS011;526;51.392;12.448;2022-09-25T07:39:04;9.17;;;5.97;;
1074;SDS011;526;51.392;12.448;2022-09-25T07:41:30;6.97;;;5.20;;
1074;SDS011;526;51.392;12.448;2022-09-25T07:43:56;6.87;;;6.47;;
1074;SDS011;526;51.392;12.448;2022-09-25T07:46:26;7.77;;;5.43;;
1074;SDS011;526;51.392;12.448;2022-09-25T07:48:52;10.63;;;6.60;;
1074;SDS011;526;51.392;12.448;2022-09-25T07:51:18;8.73;;;4.87;;
1074;SDS011;526;51.392;12.448;2022-09-25T07:53:45;8.33;;;5.97;;
1074;SDS011;526;51.392;12.448;2022-09-25T07:56:13;8.23;;;5.90;;
1074;SDS011;526;51.392;12.448;2022-09-25T07:58:39;7.70;;;5.50;;
1074;SDS011;526;51.392;12.448;2022-09-25T08:01:07;7.23;;;6.07;;
1074;SDS011;526;51.392;12.448;2022-09-25T08:03:35;7.70;;;5.27;;
1074;SDS011;526;51.392;12.448;2022-09-25T08:06:02;10.00;;;5.93;;
1074;SDS011;526;51.392;12.448;2022-09-25T08:08:28;6.83;;;4.23;;
1074;SDS011;526;51.392;12.448;2022-09-25T08:11:00;6.30;;;5.00;;
1074;SDS011;526;51.392;12.448;2022-09-25T08:13:27;7.70;;;6.00;;
1074;SDS011;526;51.392;12.448;2022-09-25T08:15:56;13.60;;;5.27;;
1074;SDS011;526;51.392;12.448;2022-09-25T08:18:21;9.90;;;4.77;;
1074;SDS011;526;51.392;12.448;2022-09-25T08:20:47;4.93;;;4.50;;
1074;SDS011;526;51.392;12.448;2022-09-25T08:23:12;6.20;;;4.23;;
1074;SDS011;526;51.392;12.448;2022-09-25T08:25:38;9.03;;;5.80;;
1074;SDS011;526;51.392;12.448;2022-09-25T08:28:03;11.23;;;7.67;;
1074;SDS011;526;51.392;12.448;2022-09-25T08:30:33;8.43;;;5.23;;
1074;SDS011;526;51.392;12.448;2022-09-25T08:33:00;8.53;;;5.60;;
1074;SDS011;526;51.392;12.448;2022-09-25T08:35:26;6.73;;;5.13;;
1074;SDS011;526;51.392;12.448;2022-09-25T08:37:52;8.53;;;6.77;;
1074;SDS011;526;51.392;12.448;2022-09-25T08:40:18;13.27;;;6.53;;
1074;SDS011;526;51.392;12.448;2022-09-25T08:42:47;8.40;;;4.23;;
1074;SDS011;526;51.392;12.448;2022-09-25T08:45:23;12.40;;;5.53;;
1074;SDS011;526;51.392;12.448;2022-09-25T08:48:13;4.63;;;4.33;;
1074;SDS011;526;51.392;12.448;2022-09-25T08:51:03;10.50;;;5.40;;
1074;SDS011;526;51.392;12.448;2022-09-25T08:53:30;8.33;;;5.53;;
1074;SDS011;526;51.392;12.448;2022-09-25T08:55:57;8.00;;;5.30;;
1074;SDS011;526;51.392;12.448;2022-09-25T08:58:39;11.23;;;6.20;;
1074;SDS011;526;51.392;12.448;2022-09-25T09:01:07;8.30;;;5.70;;
1074;SDS011;526;51.392;12.448;2022-09-25T09:03:59;6.90;;;4.70;;
1074;SDS011;526;51.392;12.448;2022-09-25T09:06:29;9.60;;;5.73;;
1074;SDS011;526;51.392;12.448;2022-09-25T09:08:59;10.23;;;5.17;;
1074;SDS011;526;51.392;12.448;2022-09-25T09:11:32;7.70;;;5.83;;
1074;SDS011;526;51.392;12.448;2022-09-25T09:14:04;8.27;;;4.73;;
1074;SDS011;526;51.392;12.448;2022-09-25T09:19:05;7.97;;;5.30;;
1074;SDS011;526;51.392;12.448;2022-09-25T09:21:38;14.43;;;7.00;;
1074;SDS011;526;51.392;12.448;2022-09-25T09:30:02;8.47;;;4.63;;
1074;SDS011;526;51.392;12.448;2022-09-25T09:35:26;9.63;;;4.70;;
1074;SDS011;526;51.392;12.448;2022-09-25T09:41:09;9.73;;;5.17;;
1074;SDS011;526;51.392;12.448;2022-09-25T09:43:54;11.10;;;4.10;;
1074;SDS011;526;51.392;12.448;2022-09-25T09:51:47;8.10;;;4.20;;
1074;SDS011;526;51.392;12.448;2022-09-25T09:54:29;7.60;;;4.00;;
1074;SDS011;526;51.392;12.448;2022-09-25T09:57:02;10.30;;;5.63;;
1074;SDS011;526;51.392;12.448;2022-09-25T09:59:41;8.53;;;4.33;;
1074;SDS011;526;51.392;12.448;2022-09-25T10:11:41;4.27;;;3.30;;
1074;SDS011;526;51.392;12.448;2022-09-25T10:14:50;9.80;;;5.67;;
1074;SDS011;526;51.392;12.448;2022-09-25T10:17:19;6.47;;;4.73;;
1074;SDS011;526;51.392;12.448;2022-09-25T10:19:51;12.30;;;4.70;;
1074;SDS011;526;51.392;12.448;2022-09-25T10:23:01;15.00;;;5.67;;
1074;SDS011;526;51.392;12.448;2022-09-25T10:25:59;8.90;;;3.27;;
1074;SDS011;526;51.392;12.448;2022-09-25T10:30:55;11.87;;;4.27;;
1074;SDS011;526;51.392;12.448;2022-09-25T10:33:26;10.23;;;4.70;;
1074;SDS011;526;51.392;12.448;2022-09-25T10:35:54;10.83;;;5.17;;
1074;SDS011;526;51.392;12.448;2022-09-25T10:44:59;7.20;;;3.87;;
1074;SDS011;526;51.392;12.448;2022-09-25T10:48:22;7.57;;;5.03;;
1074;SDS011;526;51.392;12.448;2022-09-25T10:51:27;9.93;;;5.30;;
1074;SDS011;526;51.392;12.448;2022-09-25T10:54:11;5.77;;;3.30;;
1074;SDS011;526;51.392;12.448;2022-09-25T10:56:48;4.40;;;2.93;;
1074;SDS011;526;51.392;12.448;2022-09-25T11:05:32;5.67;;;4.13;;
1074;SDS011;526;51.392;12.448;2022-09-25T11:08:19;6.17;;;4.67;;
1074;SDS011;526;51.392;12.448;2022-09-25T11:11:09;8.97;;;4.60;;
1074;SDS011;526;51.392;12.448;2022-09-25T11:16:21;6.43;;;4.77;;
1074;SDS011;526;51.392;12.448;2022-09-25T11:19:34;6.23;;;3.80;;
1074;SDS011;526;51.392;12.448;2022-09-25T11:25:12;10.13;;;4.93;;
1074;SDS011;526;51.392;12.448;2022-09-25T11:27:52;6.17;;;4.30;;
1074;SDS011;526;51.392;12.448;2022-09-25T11:43:11;6.83;;;5.33;;
1074;SDS011;526;51.392;12.448;2022-09-25T11:46:00;5.03;;;3.50;;
1074;SDS011;526;51.392;12.448;2022-09-25T11:49:19;9.60;;;6.07;;
1074;SDS011;526;51.392;12.448;2022-09-25T11:52:20;6.17;;;3.30;;
1074;SDS011;526;51.392;12.448;2022-09-25T11:58:22;8.63;;;4.60;;
1074;SDS011;526;51.392;12.448;2022-09-25T12:01:14;9.30;;;5.00;;
1074;SDS011;526;51.392;12.448;2022-09-25T12:03:49;6.47;;;3.80;;
1074;SDS011;526;51.392;12.448;2022-09-25T12:20:32;6.27;;;4.27;;
1074;SDS011;526;51.392;12.448;2022-09-25T12:23:13;6.30;;;3.47;;
1074;SDS011;526;51.392;12.448;2022-09-25T12:29:20;7.63;;;5.27;;
1074;SDS011;526;51.392;12.448;2022-09-25T12:32:00;6.77;;;3.90;;
1074;SDS011;526;51.392;12.448;2022-09-25T12:37:48;7.90;;;4.27;;
1074;SDS011;526;51.392;12.448;2022-09-25T12:45:36;8.73;;;4.70;;
1074;SDS011;526;51.392;12.448;2022-09-25T12:48:28;5.93;;;3.60;;
1074;SDS011;526;51.392;12.448;2022-09-25T12:53:33;4.60;;;3.00;;
1074;SDS011;526;51.392;12.448;2022-09-25T12:56:09;4.07;;;2.43;;
1074;SDS011;526;51.392;12.448;2022-09-25T12:58:50;5.93;;;3.63;;
1074;SDS011;526;51.392;12.448;2022-09-25T13:01:26;3.33;;;3.13;;
1074;SDS011;526;51.392;12.448;2022-09-25T13:09:47;6.77;;;3.67;;
1074;SDS011;526;51.392;12.448;2022-09-25T13:12:18;6.33;;;2.77;;
1074;SDS011;526;51.392;12.448;2022-09-25T13:17:28;3.77;;;2.53;;
1074;SDS011;526;51.392;12.448;2022-09-25T13:20:12;5.27;;;2.40;;
1074;SDS011;526;51.392;12.448;2022-09-25T13:22:56;3.53;;;2.90;;
1074;SDS011;526;51.392;12.448;2022-09-25T13:25:26;4.40;;;3.30;;
1074;SDS011;526;51.392;12.448;2022-09-25T13:27:52;4.67;;;2.47;;
1074;SDS011;526;51.392;12.448;2022-09-25T13:30:25;3.20;;;2.13;;
1074;SDS011;526;51.392;12.448;2022-09-25T13:32:56;6.90;;;4.17;;
1074;SDS011;526;51.392;12.448;2022-09-25T13:35:25;6.30;;;3.63;;
1074;SDS011;526;51.392;12.448;2022-09-25T13:37:52;3.97;;;2.67;;
1074;SDS011;526;51.392;12.448;2022-09-25T13:40:23;4.07;;;2.40;;
1074;SDS011;526;51.392;12.448;2022-09-25T13:43:26;5.47;;;3.53;;
1074;SDS011;526;51.392;12.448;2022-09-25T13:48:52;4.80;;;2.77;;
1074;SDS011;526;51.392;12.448;2022-09-25T13:56:44;9.80;;;3.43;;
1074;SDS011;526;51.392;12.448;2022-09-25T14:01:40;2.60;;;1.90;;
1074;SDS011;526;51.392;12.448;2022-09-25T14:06:39;6.40;;;2.73;;
1074;SDS011;526;51.392;12.448;2022-09-25T14:09:18;4.97;;;3.07;;
1074;SDS011;526;51.392;12.448;2022-09-25T14:12:07;4.20;;;3.43;;
1074;SDS011;526;51.392;12.448;2022-09-25T14:14:44;10.23;;;2.47;;
1074;SDS011;526;51.392;12.448;2022-09-25T14:17:17;3.50;;;2.23;;
1074;SDS011;526;51.392;12.448;2022-09-25T14:19:45;4.10;;;2.27;;
1074;SDS011;526;51.392;12.448;2022-09-25T14:22:20;4.07;;;2.43;;
1074;SDS011;526;51.392;12.448;2022-09-25T14:25:00;3.93;;;2.33;;
1074;SDS011;526;51.392;12.448;2022-09-25T14:27:26;3.30;;;2.53;;
1074;SDS011;526;51.392;12.448;2022-09-25T14:30:05;2.33;;;2.17;;
1074;SDS011;526;51.392;12.448;2022-09-25T14:32:45;3.13;;;2.43;;
1074;SDS011;526;51.392;12.448;2022-09-25T14:43:56;3.53;;;2.33;;
1074;SDS011;526;51.392;12.448;2022-09-25T14:46:24;1.90;;;1.83;;
1074;SDS011;526;51.392;12.448;2022-09-25T14:48:54;4.10;;;2.90;;
1074;SDS011;526;51.392;12.448;2022-09-25T14:51:23;3.73;;;2.87;;
1074;SDS011;526;51.392;12.448;2022-09-25T14:53:51;4.30;;;2.70;;
1074;SDS011;526;51.392;12.448;2022-09-25T14:56:22;3.33;;;2.87;;
1074;SDS011;526;51.392;12.448;2022-09-25T14:58:52;2.70;;;1.70;;
1074;SDS011;526;51.392;12.448;2022-09-25T15:01:23;3.83;;;3.40;;
1074;SDS011;526;51.392;12.448;2022-09-25T15:03:55;6.73;;;2.30;;
1074;SDS011;526;51.392;12.448;2022-09-25T15:06:30;4.80;;;2.40;;
1074;SDS011;526;51.392;12.448;2022-09-25T15:08:58;6.13;;;3.33;;
1074;SDS011;526;51.392;12.448;2022-09-25T15:11:33;2.50;;;2.20;;
1074;SDS011;526;51.392;12.448;2022-09-25T15:14:08;6.30;;;2.67;;
1074;SDS011;526;51.392;12.448;2022-09-25T15:16:43;4.00;;;1.77;;
1074;SDS011;526;51.392;12.448;2022-09-25T15:19:30;3.40;;;2.37;;
1074;SDS011;526;51.392;12.448;2022-09-25T15:22:09;1.97;;;1.57;;
1074;SDS011;526;51.392;12.448;2022-09-25T15:24:42;6.50;;;2.73;;
1074;SDS011;526;51.392;12.448;2022-09-25T15:27:12;3.93;;;2.40;;
1074;SDS011;526;51.392;12.448;2022-09-25T15:29:40;3.00;;;2.13;;
1074;SDS011;526;51.392;12.448;2022-09-25T15:32:19;5.13;;;2.63;;
1074;SDS011;526;51.392;12.448;2022-09-25T15:35:06;5.70;;;2.90;;
1074;SDS011;526;51.392;12.448;2022-09-25T15:37:41;2.87;;;2.33;;
1074;SDS011;526;51.392;12.448;2022-09-25T15:40:28;2.20;;;1.70;;
1074;SDS011;526;51.392;12.448;2022-09-25T15:42:53;1.83;;;1.73;;
1074;SDS011;526;51.392;12.448;2022-09-25T15:48:07;4.43;;;3.13;;
1074;SDS011;526;51.392;12.448;2022-09-25T15:50:42;3.20;;;2.13;;
1074;SDS011;526;51.392;12.448;2022-09-25T15:53:15;3.57;;;2.10;;
1074;SDS011;526;51.392;12.448;2022-09-25T15:55:44;3.90;;;2.70;;
1074;SDS011;526;51.392;12.448;2022-09-25T15:58:11;2.90;;;2.37;;
1074;SDS011;526;51.392;12.448;2022-09-25T16:00:39;4.00;;;2.80;;
1074;SDS011;526;51.392;12.448;2022-09-25T16:03:37;4.33;;;2.47;;
1074;SDS011;526;51.392;12.448;2022-09-25T16:06:26;5.00;;;2.80;;
1074;SDS011;526;51.392;12.448;2022-09-25T16:09:06;3.97;;;2.93;;
1074;SDS011;526;51.392;12.448;2022-09-25T16:11:50;8.37;;;4.77;;
1074;SDS011;526;51.392;12.448;2022-09-25T16:14:20;2.77;;;2.27;;
1074;SDS011;526;51.392;12.448;2022-09-25T16:16:53;2.93;;;2.73;;
1074;SDS011;526;51.392;12.448;2022-09-25T16:19:20;2.97;;;2.20;;
1074;SDS011;526;51.392;12.448;2022-09-25T16:21:51;3.97;;;2.40;;
1074;SDS011;526;51.392;12.448;2022-09-25T16:24:19;4.50;;;2.20;;
1074;SDS011;526;51.392;12.448;2022-09-25T16:26:56;12.07;;;2.33;;
1074;SDS011;526;51.392;12.448;2022-09-25T16:29:33;1.77;;;1.70;;
1074;SDS011;526;51.392;12.448;2022-09-25T16:32:04;3.87;;;2.90;;
1074;SDS011;526;51.392;12.448;2022-09-25T16:34:33;1.80;;;1.80;;
1074;SDS011;526;51.392;12.448;2022-09-25T16:37:01;4.27;;;2.17;;
1074;SDS011;526;51.392;12.448;2022-09-25T16:39:30;3.13;;;1.90;;
1074;SDS011;526;51.392;12.448;2022-09-25T16:42:22;8.87;;;1.43;;
1074;SDS011;526;51.392;12.448;2022-09-25T16:45:00;2.43;;;2.23;;
1074;SDS011;526;51.392;12.448;2022-09-25T16:47:40;2.27;;;2.07;;
1074;SDS011;526;51.392;12.448;2022-09-25T16:50:07;2.30;;;2.10;;
1074;SDS011;526;51.392;12.448;2022-09-25T16:52:36;3.87;;;2.43;;
1074;SDS011;526;51.392;12.448;2022-09-25T16:55:05;2.90;;;1.77;;
1074;SDS011;526;51.392;12.448;2022-09-25T16:57:36;3.23;;;2.77;;
1074;SDS011;526;51.392;12.448;2022-09-25T17:00:02;5.13;;;3.33;;
1074;SDS011;526;51.392;12.448;2022-09-25T17:02:30;3.03;;;1.60;;
1074;SDS011;526;51.392;12.448;2022-09-25T17:05:00;4.40;;;1.80;;
1074;SDS011;526;51.392;12.448;2022-09-25T17:07:28;4.10;;;3.50;;
1074;SDS011;526;51.392;12.448;2022-09-25T17:09:53;9.33;;;2.40;;
1074;SDS011;526;51.392;12.448;2022-09-25T17:12:19;3.20;;;2.20;;
1074;SDS011;526;51.392;12.448;2022-09-25T17:14:48;3.73;;;2.37;;
1074;SDS011;526;51.392;12.448;2022-09-25T17:17:16;6.90;;;3.40;;
1074;SDS011;526;51.392;12.448;2022-09-25T17:19:43;4.17;;;2.10;;
1074;SDS011;526;51.392;12.448;2022-09-25T17:22:09;5.30;;;3.60;;
1074;SDS011;526;51.392;12.448;2022-09-25T17:24:35;4.27;;;2.00;;
1074;SDS011;526;51.392;12.448;2022-09-25T17:27:00;6.07;;;2.60;;
1074;SDS011;526;51.392;12.448;2022-09-25T17:29:26;4.37;;;3.50;;
1074;SDS011;526;51.392;12.448;2022-09-25T17:31:55;3.07;;;1.53;;
1074;SDS011;526;51.392;12.448;2022-09-25T17:34:21;2.10;;;2.00;;
1074;SDS011;526;51.392;12.448;2022-09-25T17:36:52;3.37;;;2.20;;
1074;SDS011;526;51.392;12.448;2022-09-25T17:39:18;3.20;;;2.13;;
1074;SDS011;526;51.392;12.448;2022-09-25T17:41:45;5.50;;;3.13;;
1074;SDS011;526;51.392;12.448;2022-09-25T17:44:12;3.60;;;2.97;;
1074;SDS011;526;51.392;12.448;2022-09-25T17:46:41;2.43;;;1.93;;
1074;SDS011;526;51.392;12.448;2022-09-25T17:49:07;9.17;;;3.37;;
1074;SDS011;526;51.392;12.448;2022-09-25T17:51:33;2.03;;;1.50;;
1074;SDS011;526;51.392;12.448;2022-09-25T17:53:59;2.83;;;2.37;;
1074;SDS011;526;51.392;12.448;2022-09-25T17:56:26;3.83;;;2.00;;
1074;SDS011;526;51.392;12.448;2022-09-25T17:58:53;3.53;;;2.20;;
1074;SDS011;526;51.392;12.448;2022-09-25T18:01:21;4.60;;;1.90;;
1074;SDS011;526;51.392;12.448;2022-09-25T18:03:56;1.93;;;1.83;;
1074;SDS011;526;51.392;12.448;2022-09-25T18:06:24;10.73;;;3.83;;
1074;SDS011;526;51.392;12.448;2022-09-25T18:08:51;2.90;;;2.70;;
1074;SDS011;526;51.392;12.448;2022-09-25T18:11:18;6.20;;;3.80;;
1074;SDS011;526;51.392;12.448;2022-09-25T18:13:44;6.10;;;3.20;;
1074;SDS011;526;51.392;12.448;2022-09-25T18:16:15;2.33;;;2.23;;
1074;SDS011;526;51.392;12.448;2022-09-25T18:18:43;3.20;;;2.60;;